createdAt,value
2022-10-17T00:05:12.123Z,3.10
2022-10-17T00:10:33.914Z,3.05
2022-10-17T00:15:55.741Z,2.70
2022-10-17T00:21:19.057Z,2.53
2022-10-17T00:26:40.914Z,2.63
2022-10-17T00:32:02.627Z,2.25
2022-10-17T00:37:24.403Z,2.80
2022-10-17T00:42:46.206Z,2.47
2022-10-17T00:48:11.085Z,2.42
2022-10-17T00:53:33.717Z,2.70
2022-10-17T00:58:55.915Z,2.35
2022-10-17T01:04:19.026Z,2.17
2022-10-17T01:09:42.694Z,2.38
2022-10-17T01:15:25.708Z,2.42
2022-10-17T01:21:08.501Z,2.40
2022-10-17T01:26:36.258Z,2.35
2022-10-17T01:32:16.191Z,2.33
2022-10-17T01:37:50.368Z,2.55
2022-10-17T01:43:22.973Z,2.13
2022-10-17T01:48:46.449Z,2.00
2022-10-17T01:54:11.066Z,2.53
2022-10-17T01:59:40.925Z,2.28
2022-10-17T02:05:04.491Z,2.17
2022-10-17T02:10:57.351Z,2.25
2022-10-17T02:16:31.265Z,2.22
2022-10-17T02:22:04.237Z,2.25
2022-10-17T02:27:56.732Z,2.35
2022-10-17T02:33:32.675Z,2.00
2022-10-17T02:38:55.506Z,2.08
2022-10-17T02:44:17.917Z,2.40
2022-10-17T02:49:43.779Z,1.70
2022-10-17T02:55:19.336Z,2.08
2022-10-17T03:00:41.914Z,2.30
2022-10-17T03:06:03.728Z,2.22
2022-10-17T03:11:25.459Z,2.15
2022-10-17T03:16:47.363Z,2.63
2022-10-17T03:22:09.068Z,2.08
2022-10-17T03:27:31.125Z,2.17
2022-10-17T03:32:53.244Z,1.83
2022-10-17T03:38:14.961Z,2.63
2022-10-17T03:43:36.714Z,2.58
2022-10-17T03:48:58.491Z,1.90
2022-10-17T03:54:20.205Z,2.00
2022-10-17T03:59:41.921Z,2.05
2022-10-17T04:05:03.877Z,1.85
2022-10-17T04:10:25.632Z,2.10
2022-10-17T04:15:58.372Z,2.20
2022-10-17T04:21:20.110Z,2.13
2022-10-17T04:26:41.838Z,2.40
2022-10-17T04:32:04.054Z,2.35
2022-10-17T04:37:25.742Z,2.50
2022-10-17T04:42:47.576Z,3.15
2022-10-17T04:48:09.347Z,2.80
2022-10-17T04:53:33.344Z,2.85
2022-10-17T04:58:55.085Z,2.63
2022-10-17T05:04:19.888Z,2.60
2022-10-17T05:09:44.482Z,2.33
2022-10-17T05:15:06.891Z,2.90
2022-10-17T05:20:28.738Z,2.85
2022-10-17T05:25:56.642Z,3.05
2022-10-17T05:31:18.824Z,3.08
2022-10-17T05:36:40.565Z,3.92
2022-10-17T05:42:02.416Z,5.25
2022-10-17T05:47:24.157Z,5.13
2022-10-17T05:52:47.167Z,3.90
2022-10-17T05:58:11.707Z,3.20
2022-10-17T06:03:39.593Z,3.33
2022-10-17T06:09:01.362Z,3.28
2022-10-17T06:14:23.163Z,6.43
2022-10-17T06:19:45.202Z,5.53
2022-10-17T06:25:07.444Z,3.83
2022-10-17T06:30:29.200Z,4.72
2022-10-17T06:35:55.132Z,5.00
2022-10-17T06:41:19.269Z,4.10
2022-10-17T06:46:41.034Z,4.88
2022-10-17T06:52:02.778Z,5.93
2022-10-17T06:57:24.540Z,6.07
2022-10-17T07:02:46.226Z,6.70
2022-10-17T07:08:08.667Z,6.72
2022-10-17T07:13:30.395Z,4.90
2022-10-17T07:18:52.635Z,3.78
2022-10-17T07:24:14.547Z,3.92
2022-10-17T07:29:36.431Z,4.28
2022-10-17T07:34:58.131Z,4.00
2022-10-17T07:40:19.933Z,5.75
2022-10-17T07:45:41.843Z,5.20
2022-10-17T07:51:05.399Z,5.05
2022-10-17T07:56:27.134Z,4.82
2022-10-17T08:01:48.923Z,5.20
2022-10-17T08:07:20.021Z,4.95
2022-10-17T08:12:44.881Z,5.00
2022-10-17T08:18:06.608Z,8.90
2022-10-17T08:23:28.739Z,5.53
2022-10-17T08:28:50.476Z,4.72
2022-10-17T08:34:12.277Z,4.47
2022-10-17T08:39:33.961Z,4.95
2022-10-17T08:45:16.941Z,8.88
2022-10-17T08:50:48.493Z,6.25
2022-10-17T08:56:25.002Z,7.00
2022-10-17T09:02:27.179Z,6.72
2022-10-17T09:07:54.053Z,6.20
2022-10-17T09:13:31.731Z,4.20
2022-10-17T09:19:22.805Z,6.00
2022-10-17T09:24:51.189Z,3.60
2022-10-17T09:30:46.212Z,5.03
2022-10-17T09:36:13.646Z,5.50
2022-10-17T09:41:46.625Z,6.03
2022-10-17T09:47:38.102Z,5.10
2022-10-17T09:53:30.750Z,3.53
2022-10-17T09:58:57.289Z,6.03
2022-10-17T10:04:19.029Z,6.50
2022-10-17T10:09:46.961Z,8.00
2022-10-17T10:15:32.209Z,5.05
2022-10-17T10:21:07.692Z,7.57
2022-10-17T10:26:40.034Z,4.20
2022-10-17T10:32:08.176Z,4.00
2022-10-17T10:37:38.213Z,7.65
2022-10-17T10:43:05.183Z,5.18
2022-10-17T10:48:34.375Z,3.75
2022-10-17T10:54:05.205Z,3.58
2022-10-17T10:59:56.508Z,2.15
2022-10-17T11:05:35.590Z,1.85
2022-10-17T11:11:19.399Z,2.00
2022-10-17T11:17:01.020Z,2.10
2022-10-17T11:22:31.139Z,5.32
2022-10-17T11:27:53.049Z,2.00
2022-10-17T11:33:27.627Z,3.28
2022-10-17T11:39:01.710Z,2.90
2022-10-17T11:44:38.622Z,1.83
2022-10-17T11:56:02.124Z,1.95
2022-10-17T12:01:44.546Z,1.65
2022-10-17T12:07:17.934Z,1.48
2022-10-17T12:12:40.546Z,1.50
2022-10-17T12:18:03.922Z,2.10
2022-10-17T12:23:32.514Z,1.98
2022-10-17T12:28:55.456Z,1.70
2022-10-17T12:34:21.574Z,1.88
2022-10-17T12:39:43.310Z,1.42
2022-10-17T12:45:43.942Z,1.58
2022-10-17T12:56:52.867Z,1.92
2022-10-17T13:02:23.776Z,1.80
2022-10-17T13:07:48.384Z,2.00
2022-10-17T13:13:19.053Z,1.67
2022-10-17T13:18:40.829Z,1.38
2022-10-17T13:24:23.644Z,2.08
2022-10-17T13:29:45.398Z,1.88
2022-10-17T13:35:22.059Z,2.35
2022-10-17T13:40:50.470Z,2.10
2022-10-17T13:46:38.407Z,1.88
2022-10-17T13:52:03.777Z,2.00
2022-10-17T13:57:30.374Z,2.03
2022-10-17T14:02:52.235Z,1.90
2022-10-17T14:08:22.803Z,1.70
2022-10-17T14:13:49.396Z,1.73
2022-10-17T14:19:33.197Z,1.83
2022-10-17T14:24:59.040Z,1.95
2022-10-17T14:30:51.565Z,2.03
2022-10-17T14:36:08.055Z,2.35
2022-10-17T14:41:43.530Z,2.00
2022-10-17T14:47:38.053Z,1.60
2022-10-17T14:53:12.689Z,1.95
2022-10-17T14:58:34.805Z,1.90
2022-10-17T15:03:56.488Z,1.45
2022-10-17T15:09:18.169Z,1.90
2022-10-17T15:14:39.879Z,2.45
2022-10-17T15:20:01.623Z,2.03
2022-10-17T15:25:24.706Z,2.03
2022-10-17T15:30:46.481Z,1.90
2022-10-17T15:36:38.882Z,1.95
2022-10-17T15:42:00.647Z,1.83
2022-10-17T15:47:33.880Z,2.08
2022-10-17T15:52:56.259Z,2.20
2022-10-17T15:58:18.871Z,2.15
2022-10-17T16:03:40.642Z,2.38
2022-10-17T16:09:02.445Z,2.28
2022-10-17T16:14:24.152Z,2.63
2022-10-17T16:19:45.889Z,2.13
2022-10-17T16:25:19.322Z,2.67
2022-10-17T16:30:44.470Z,2.78
2022-10-17T16:36:07.228Z,3.05
2022-10-17T16:41:31.701Z,2.88
2022-10-17T16:46:53.433Z,2.70
2022-10-17T16:52:15.231Z,2.72
2022-10-17T16:57:37.062Z,2.20
2022-10-17T17:02:58.790Z,2.63
2022-10-17T17:08:20.582Z,2.50
2022-10-17T17:13:42.369Z,2.30
2022-10-17T17:19:06.931Z,2.80
2022-10-17T17:24:29.353Z,2.58
2022-10-17T17:29:51.099Z,3.10
2022-10-17T17:35:12.838Z,3.40
2022-10-17T17:40:34.695Z,3.42
2022-10-17T17:45:56.404Z,3.03
2022-10-17T17:51:21.148Z,3.22
2022-10-17T17:56:44.208Z,2.97
2022-10-17T18:02:06.757Z,3.50
2022-10-17T18:07:28.585Z,3.47
2022-10-17T18:12:50.277Z,4.07
2022-10-17T18:18:12.271Z,4.72
2022-10-17T18:23:38.673Z,4.70
2022-10-17T18:29:00.479Z,4.60
2022-10-17T18:34:22.207Z,4.03
2022-10-17T18:39:44.929Z,3.83
2022-10-17T18:45:07.448Z,3.58
2022-10-17T18:50:29.178Z,4.30
2022-10-17T18:55:51.290Z,3.70
2022-10-17T19:01:16.129Z,4.43
2022-10-17T19:06:37.912Z,4.57
2022-10-17T19:12:00.189Z,4.90
2022-10-17T19:17:21.890Z,5.47
2022-10-17T19:22:43.673Z,4.00
2022-10-17T19:28:05.461Z,7.97
2022-10-17T19:38:53.532Z,6.30
2022-10-17T19:44:16.095Z,5.93
2022-10-17T19:49:37.965Z,5.88
2022-10-17T19:54:59.782Z,5.32
2022-10-17T20:00:21.513Z,5.80
2022-10-17T20:05:43.211Z,5.20
2022-10-17T20:11:11.746Z,5.60
2022-10-17T20:16:35.322Z,6.07
2022-10-17T20:21:57.045Z,6.93
2022-10-17T20:27:18.934Z,6.47
2022-10-17T20:32:40.663Z,5.88
2022-10-17T20:38:02.386Z,5.63
2022-10-17T20:43:24.168Z,4.18
2022-10-17T20:48:46.007Z,4.10
2022-10-17T20:54:07.955Z,3.85
2022-10-17T20:59:29.892Z,3.95
2022-10-17T21:04:51.695Z,4.45
2022-10-17T21:10:34.253Z,4.72
2022-10-17T21:15:55.108Z,4.10
2022-10-17T21:21:36.997Z,4.68
2022-10-17T21:26:58.831Z,4.22
2022-10-17T21:32:33.346Z,3.78
2022-10-17T21:38:02.941Z,3.97
2022-10-17T21:43:24.654Z,4.88
2022-10-17T21:48:47.570Z,6.53
2022-10-17T21:54:09.310Z,4.70
2022-10-17T21:59:31.865Z,4.70
2022-10-17T22:04:53.632Z,4.30
2022-10-17T22:10:15.435Z,3.90
2022-10-17T22:15:37.194Z,3.58
2022-10-17T22:21:03.872Z,4.88
2022-10-17T22:26:27.677Z,4.20
2022-10-17T22:31:49.517Z,4.28
2022-10-17T22:37:11.197Z,4.45
2022-10-17T22:42:34.487Z,4.60
2022-10-17T22:47:56.952Z,4.63
2022-10-17T22:53:23.984Z,4.60
2022-10-17T22:58:46.483Z,4.93
2022-10-17T23:04:08.155Z,4.10
2022-10-17T23:09:29.895Z,4.45
2022-10-17T23:14:51.652Z,5.47
2022-10-17T23:20:13.359Z,6.85
2022-10-17T23:25:35.093Z,4.70
2022-10-17T23:30:56.962Z,4.60
2022-10-17T23:36:20.436Z,6.45
2022-10-17T23:41:42.195Z,4.97
2022-10-17T23:47:03.999Z,4.68
2022-10-17T23:52:25.682Z,4.50
2022-10-17T23:57:47.379Z,4.97
